createdAt,value
2019-03-13T00:01:45.600Z,1.32
2019-03-13T00:04:34.396Z,0.80
2019-03-13T00:07:22.625Z,0.82
2019-03-13T00:10:11.739Z,0.68
2019-03-13T00:13:00.624Z,0.70
2019-03-13T00:15:50.037Z,0.60
2019-03-13T00:18:39.622Z,0.80
2019-03-13T00:21:27.633Z,1.07
2019-03-13T00:24:16.493Z,0.70
2019-03-13T00:27:05.042Z,0.60
2019-03-13T00:29:53.959Z,0.70
2019-03-13T00:32:42.689Z,0.68
2019-03-13T00:35:31.730Z,1.00
2019-03-13T00:38:20.133Z,0.90
2019-03-13T00:41:08.678Z,1.00
2019-03-13T00:43:57.591Z,0.70
2019-03-13T00:46:46.328Z,0.70
2019-03-13T00:49:34.940Z,0.88
2019-03-13T00:52:23.690Z,0.78
2019-03-13T00:55:12.478Z,0.90
2019-03-13T00:58:00.860Z,1.10
2019-03-13T01:01:08.741Z,0.60
2019-03-13T01:04:19.849Z,0.80
2019-03-13T01:07:10.568Z,1.27
2019-03-13T01:09:59.775Z,1.10
2019-03-13T01:12:47.846Z,0.70
2019-03-13T01:15:35.996Z,0.78
2019-03-13T01:18:24.462Z,1.02
2019-03-13T01:21:12.940Z,1.03
2019-03-13T01:24:01.750Z,1.00
2019-03-13T01:26:50.370Z,1.30
2019-03-13T01:29:38.832Z,1.82
2019-03-13T01:32:53.175Z,0.90
2019-03-13T01:35:51.823Z,1.00
2019-03-13T01:38:40.413Z,1.25
2019-03-13T01:41:29.134Z,0.90
2019-03-13T01:44:17.680Z,0.93
2019-03-13T01:47:05.944Z,1.27
2019-03-13T01:49:54.887Z,0.80
2019-03-13T01:52:43.857Z,0.80
2019-03-13T01:55:31.856Z,1.40
2019-03-13T01:58:20.332Z,0.88
2019-03-13T02:01:09.384Z,1.20
2019-03-13T02:03:57.965Z,1.25
2019-03-13T02:06:46.686Z,0.90
2019-03-13T02:09:35.584Z,1.30
2019-03-13T02:12:24.379Z,0.85
2019-03-13T02:15:15.453Z,0.98
2019-03-13T02:18:03.791Z,0.90
2019-03-13T02:20:53.038Z,1.30
2019-03-13T02:23:42.117Z,1.05
2019-03-13T02:26:30.294Z,1.27
2019-03-13T02:29:18.802Z,1.10
2019-03-13T02:32:07.511Z,0.95
2019-03-13T02:34:56.159Z,1.10
2019-03-13T02:37:44.928Z,0.82
2019-03-13T02:40:33.629Z,0.80
2019-03-13T02:43:22.298Z,1.12
2019-03-13T02:46:11.120Z,0.78
2019-03-13T02:49:00.181Z,0.88
2019-03-13T02:51:49.032Z,1.30
2019-03-13T02:54:37.598Z,0.80
2019-03-13T02:57:26.132Z,1.50
2019-03-13T03:00:17.022Z,0.80
2019-03-13T03:03:07.691Z,1.30
2019-03-13T03:05:57.555Z,1.37
2019-03-13T03:08:46.377Z,0.95
2019-03-13T03:11:35.158Z,1.00
2019-03-13T03:14:23.905Z,1.90
2019-03-13T03:17:12.687Z,0.95
2019-03-13T03:20:01.322Z,0.93
2019-03-13T03:22:50.609Z,0.55
2019-03-13T03:25:38.658Z,0.47
2019-03-13T03:28:27.266Z,1.15
2019-03-13T03:31:15.934Z,0.55
2019-03-13T03:34:05.160Z,0.40
2019-03-13T03:36:53.598Z,0.50
2019-03-13T03:39:41.903Z,0.30
2019-03-13T03:42:30.543Z,0.60
2019-03-13T03:45:19.484Z,0.30
2019-03-13T03:48:08.554Z,0.37
2019-03-13T03:50:57.209Z,0.60
2019-03-13T03:53:46.113Z,0.35
2019-03-13T03:56:34.322Z,0.40
2019-03-13T03:59:22.585Z,0.30
2019-03-13T04:02:11.305Z,0.40
2019-03-13T04:05:00.080Z,0.30
2019-03-13T04:07:48.596Z,0.30
2019-03-13T04:10:38.404Z,0.30
2019-03-13T04:13:27.128Z,0.30
2019-03-13T04:16:15.315Z,0.28
2019-03-13T04:19:04.187Z,0.40
2019-03-13T04:21:52.786Z,0.27
2019-03-13T04:24:41.527Z,0.45
2019-03-13T04:27:30.395Z,0.40
2019-03-13T04:30:19.427Z,0.30
2019-03-13T04:33:08.263Z,0.30
2019-03-13T04:35:56.264Z,0.30
2019-03-13T04:38:44.905Z,0.30
2019-03-13T04:41:33.305Z,0.30
2019-03-13T04:44:21.739Z,0.30
2019-03-13T04:47:10.377Z,0.30
2019-03-13T04:49:58.873Z,0.25
2019-03-13T04:52:47.695Z,0.37
2019-03-13T04:55:36.284Z,0.30
2019-03-13T04:58:24.811Z,0.30
2019-03-13T05:01:13.847Z,0.30
2019-03-13T05:04:02.479Z,0.37
2019-03-13T05:06:51.145Z,0.47
2019-03-13T05:09:40.516Z,0.50
2019-03-13T05:12:29.675Z,0.30
2019-03-13T05:15:17.701Z,0.50
2019-03-13T05:18:06.581Z,0.40
2019-03-13T05:20:55.413Z,0.30
2019-03-13T05:23:43.995Z,0.40
2019-03-13T05:26:32.299Z,0.40
2019-03-13T05:29:20.850Z,0.50
2019-03-13T05:32:09.525Z,0.40
2019-03-13T05:34:58.667Z,0.70
2019-03-13T05:37:47.344Z,0.40
2019-03-13T05:40:36.517Z,0.50
2019-03-13T05:43:25.301Z,0.42
2019-03-13T05:46:13.717Z,0.60
2019-03-13T05:49:02.175Z,0.53
2019-03-13T05:51:50.565Z,0.77
2019-03-13T05:54:39.647Z,0.50
2019-03-13T05:57:28.272Z,0.60
2019-03-13T06:00:18.375Z,0.50
2019-03-13T06:03:06.585Z,0.40
2019-03-13T06:05:55.114Z,0.70
2019-03-13T06:08:43.821Z,0.40
2019-03-13T06:11:32.218Z,0.40
2019-03-13T06:14:20.821Z,0.40
2019-03-13T06:17:09.230Z,0.50
2019-03-13T06:19:58.132Z,0.50
2019-03-13T06:22:47.338Z,0.40
2019-03-13T06:25:36.088Z,0.55
2019-03-13T06:28:24.970Z,0.40
2019-03-13T06:31:13.677Z,0.47
2019-03-13T06:34:02.338Z,0.40
2019-03-13T06:36:51.298Z,0.60
2019-03-13T06:39:40.463Z,0.60
2019-03-13T06:42:29.007Z,0.80
2019-03-13T06:45:17.950Z,0.70
2019-03-13T06:48:06.354Z,0.80
2019-03-13T06:50:55.042Z,0.80
2019-03-13T06:53:43.116Z,0.78
2019-03-13T06:56:31.151Z,0.80
2019-03-13T06:59:27.485Z,0.70
2019-03-13T07:02:23.958Z,0.70
2019-03-13T07:05:27.143Z,0.90
2019-03-13T07:08:25.348Z,0.85
2019-03-13T07:11:45.746Z,0.80
2019-03-13T07:15:05.190Z,0.95
2019-03-13T07:18:21.253Z,0.90
2019-03-13T07:21:28.349Z,0.70
2019-03-13T07:24:34.837Z,0.50
2019-03-13T07:27:35.517Z,0.47
2019-03-13T07:30:48.746Z,0.55
2019-03-13T07:34:00.110Z,0.60
2019-03-13T07:37:08.111Z,0.70
2019-03-13T07:40:06.671Z,0.80
2019-03-13T07:43:11.884Z,0.75
2019-03-13T07:46:19.332Z,0.60
2019-03-13T07:49:27.079Z,1.20
2019-03-13T07:52:33.769Z,0.45
2019-03-13T07:55:40.171Z,1.00
2019-03-13T07:58:44.278Z,1.30
2019-03-13T08:02:01.360Z,1.05
2019-03-13T08:05:07.808Z,0.70
2019-03-13T08:08:28.167Z,0.53
2019-03-13T08:11:27.346Z,0.40
2019-03-13T08:14:37.228Z,0.50
2019-03-13T08:17:38.485Z,0.55
2019-03-13T08:20:59.058Z,0.60
2019-03-13T08:24:02.881Z,0.47
2019-03-13T08:27:25.865Z,0.50
2019-03-13T08:30:45.183Z,0.50
2019-03-13T08:33:51.579Z,0.53
2019-03-13T08:36:55.070Z,0.43
2019-03-13T08:40:01.965Z,0.50
2019-03-13T08:43:08.246Z,0.45
2019-03-13T08:46:14.581Z,0.60
2019-03-13T08:49:24.636Z,0.75
2019-03-13T08:52:34.986Z,0.50
2019-03-13T08:55:42.413Z,0.60
2019-03-13T08:58:55.652Z,0.50
2019-03-13T09:01:56.551Z,0.60
2019-03-13T09:04:55.567Z,0.53
2019-03-13T09:08:18.775Z,0.60
2019-03-13T09:11:28.696Z,0.50
2019-03-13T09:14:37.257Z,0.47
2019-03-13T09:17:42.947Z,0.80
2019-03-13T09:20:38.519Z,0.63
2019-03-13T09:23:58.622Z,1.10
2019-03-13T09:27:18.203Z,0.60
2019-03-13T09:30:41.474Z,0.78
2019-03-13T09:33:47.338Z,0.40
2019-03-13T09:36:48.886Z,0.30
2019-03-13T09:39:59.755Z,0.42
2019-03-13T09:43:05.652Z,0.50
2019-03-13T09:46:12.830Z,0.50
2019-03-13T09:49:30.297Z,0.40
2019-03-13T09:52:41.242Z,0.40
2019-03-13T09:55:48.540Z,0.50
2019-03-13T09:59:12.170Z,0.50
2019-03-13T10:02:18.885Z,0.53
2019-03-13T10:05:23.649Z,0.47
2019-03-13T10:08:31.488Z,0.40
2019-03-13T10:11:28.696Z,0.50
2019-03-13T10:14:39.525Z,0.62
2019-03-13T10:17:45.263Z,0.42
2019-03-13T10:20:51.849Z,0.50
2019-03-13T10:23:48.448Z,0.50
2019-03-13T10:26:55.893Z,0.60
2019-03-13T10:30:07.684Z,0.30
2019-03-13T10:33:02.739Z,0.50
2019-03-13T10:36:29.270Z,0.50
2019-03-13T10:39:46.582Z,0.70
2019-03-13T10:42:41.736Z,1.40
2019-03-13T10:45:38.455Z,0.50
2019-03-13T10:48:55.657Z,0.60
2019-03-13T10:52:06.301Z,0.60
2019-03-13T10:55:20.605Z,0.53
2019-03-13T10:58:27.258Z,0.50
2019-03-13T11:01:20.944Z,0.40
2019-03-13T11:04:28.147Z,0.50
2019-03-13T11:07:35.518Z,0.30
2019-03-13T11:10:43.027Z,0.55
2019-03-13T11:13:39.568Z,0.60
2019-03-13T11:16:46.874Z,0.40
2019-03-13T11:19:41.407Z,0.50
2019-03-13T11:22:51.711Z,0.47
2019-03-13T11:26:05.267Z,0.60
2019-03-13T11:29:13.027Z,0.60
2019-03-13T11:32:20.766Z,0.60
2019-03-13T11:35:28.852Z,0.67
2019-03-13T11:38:35.561Z,0.60
2019-03-13T11:41:51.846Z,0.65
2019-03-13T11:45:14.737Z,0.72
2019-03-13T11:48:15.804Z,0.50
2019-03-13T11:51:29.818Z,0.70
2019-03-13T11:54:47.381Z,0.60
2019-03-13T11:57:54.163Z,0.62
2019-03-13T12:01:00.107Z,0.60
2019-03-13T12:04:03.734Z,0.53
2019-03-13T12:06:59.753Z,0.80
2019-03-13T12:09:58.767Z,0.60
2019-03-13T12:13:01.780Z,0.55
2019-03-13T12:16:03.845Z,0.60
2019-03-13T12:19:17.633Z,0.65
2019-03-13T12:22:26.929Z,0.98
2019-03-13T12:25:30.387Z,0.60
2019-03-13T12:28:29.632Z,0.65
2019-03-13T12:31:56.559Z,0.60
2019-03-13T12:35:04.150Z,0.60
2019-03-13T12:37:59.957Z,0.60
2019-03-13T12:41:07.119Z,0.80
2019-03-13T12:44:15.125Z,0.60
2019-03-13T12:47:25.503Z,0.40
2019-03-13T12:50:39.339Z,0.60
2019-03-13T12:53:37.460Z,0.53
2019-03-13T12:56:44.549Z,0.70
2019-03-13T12:59:50.999Z,0.62
2019-03-13T13:02:55.332Z,0.65
2019-03-13T13:06:02.122Z,1.00
2019-03-13T13:09:21.403Z,0.70
2019-03-13T13:12:29.182Z,0.90
2019-03-13T13:15:34.969Z,0.75
2019-03-13T13:18:48.839Z,0.80
2019-03-13T13:21:37.573Z,0.73
2019-03-13T13:24:26.260Z,0.40
2019-03-13T13:27:14.504Z,1.12
2019-03-13T13:30:02.821Z,1.30
2019-03-13T13:32:51.161Z,0.70
2019-03-13T13:35:39.885Z,0.70
2019-03-13T13:38:28.275Z,0.60
2019-03-13T13:41:17.695Z,0.70
2019-03-13T13:44:06.865Z,0.72
2019-03-13T13:46:55.799Z,0.70
2019-03-13T13:49:44.519Z,1.22
2019-03-13T13:52:32.875Z,0.60
2019-03-13T13:55:22.023Z,0.90
2019-03-13T13:58:10.734Z,0.57
2019-03-13T14:01:00.761Z,0.80
2019-03-13T14:04:19.835Z,0.70
2019-03-13T14:14:56.891Z,1.10
2019-03-13T14:17:45.635Z,1.05
2019-03-13T14:20:34.814Z,0.70
2019-03-13T14:23:23.399Z,0.80
2019-03-13T14:26:11.552Z,1.00
2019-03-13T14:29:00.558Z,1.20
2019-03-13T14:31:49.065Z,1.10
2019-03-13T14:34:37.925Z,0.90
2019-03-13T14:37:26.646Z,1.30
2019-03-13T14:40:15.443Z,1.07
2019-03-13T14:43:03.914Z,1.22
2019-03-13T14:45:52.217Z,0.88
2019-03-13T14:48:40.778Z,0.95
2019-03-13T14:51:28.919Z,1.10
2019-03-13T14:54:17.319Z,0.85
2019-03-13T14:57:05.832Z,0.98
2019-03-13T14:59:54.516Z,0.90
2019-03-13T15:02:43.594Z,0.80
2019-03-13T15:05:32.829Z,0.77
2019-03-13T15:08:21.598Z,0.90
2019-03-13T15:11:11.730Z,1.07
2019-03-13T15:14:00.308Z,1.05
2019-03-13T15:16:49.113Z,1.20
2019-03-13T15:19:37.284Z,1.05
2019-03-13T15:22:25.723Z,0.80
2019-03-13T15:25:16.438Z,1.20
2019-03-13T15:28:05.421Z,0.90
2019-03-13T15:30:54.562Z,1.10
2019-03-13T15:33:43.384Z,1.07
2019-03-13T15:36:31.945Z,1.40
2019-03-13T15:39:21.048Z,1.10
2019-03-13T15:42:09.198Z,0.60
2019-03-13T15:44:58.660Z,0.70
2019-03-13T15:47:47.532Z,0.70
2019-03-13T15:50:36.603Z,0.85
2019-03-13T15:53:25.628Z,0.80
2019-03-13T15:56:14.581Z,1.42
2019-03-13T15:59:03.303Z,1.62
2019-03-13T16:01:52.309Z,1.80
2019-03-13T16:04:41.630Z,0.90
2019-03-13T16:07:30.008Z,1.00
2019-03-13T16:10:19.074Z,0.70
2019-03-13T16:13:08.035Z,0.90
2019-03-13T16:15:56.912Z,1.10
2019-03-13T16:18:45.255Z,0.78
2019-03-13T16:21:34.192Z,0.90
2019-03-13T16:24:22.989Z,0.60
2019-03-13T16:27:12.232Z,0.70
2019-03-13T16:30:01.105Z,0.75
2019-03-13T16:32:50.363Z,3.80
2019-03-13T16:35:39.160Z,2.03
2019-03-13T16:38:28.129Z,0.93
2019-03-13T16:41:17.373Z,0.98
2019-03-13T16:44:06.027Z,5.30
2019-03-13T16:46:54.916Z,1.00
2019-03-13T16:49:43.472Z,1.12
2019-03-13T16:52:31.775Z,0.80
2019-03-13T16:55:20.797Z,0.80
2019-03-13T16:58:09.859Z,0.80
2019-03-13T17:00:58.492Z,0.70
2019-03-13T17:03:47.701Z,0.60
2019-03-13T17:06:36.624Z,1.00
2019-03-13T17:09:25.596Z,0.70
2019-03-13T17:12:14.681Z,0.60
2019-03-13T17:15:02.915Z,1.00
2019-03-13T17:17:51.721Z,1.20
2019-03-13T17:20:40.519Z,1.57
2019-03-13T17:23:29.330Z,0.72
2019-03-13T17:26:18.330Z,1.20
2019-03-13T17:29:07.711Z,1.20
2019-03-13T17:31:56.132Z,0.70
2019-03-13T17:34:44.966Z,1.00
2019-03-13T17:37:33.991Z,0.90
2019-03-13T17:40:23.689Z,0.85
2019-03-13T17:43:13.012Z,1.30
2019-03-13T17:46:01.659Z,1.20
2019-03-13T17:48:50.334Z,1.20
2019-03-13T17:51:39.236Z,0.80
2019-03-13T17:54:27.752Z,1.12
2019-03-13T17:57:16.610Z,1.15
2019-03-13T18:00:07.113Z,1.47
2019-03-13T18:02:55.721Z,1.22
2019-03-13T18:05:44.171Z,1.50
2019-03-13T18:08:32.982Z,2.92
2019-03-13T18:11:22.738Z,2.80
2019-03-13T18:14:12.062Z,2.15
2019-03-13T18:17:01.232Z,1.40
2019-03-13T18:19:50.361Z,2.47
2019-03-13T18:22:38.823Z,2.62
2019-03-13T18:25:27.769Z,1.57
2019-03-13T18:28:16.824Z,1.77
2019-03-13T18:31:05.793Z,2.30
2019-03-13T18:33:56.822Z,1.45
2019-03-13T18:36:54.431Z,1.10
2019-03-13T18:39:44.454Z,1.00
2019-03-13T18:42:34.176Z,4.72
2019-03-13T18:45:24.641Z,1.92
2019-03-13T18:48:13.832Z,2.30
2019-03-13T18:51:03.039Z,3.27
2019-03-13T18:53:51.291Z,1.90
2019-03-13T18:56:40.355Z,1.90
2019-03-13T18:59:30.585Z,2.80
2019-03-13T19:02:19.191Z,1.30
2019-03-13T19:05:08.909Z,1.30
2019-03-13T19:07:57.639Z,2.02
2019-03-13T19:10:46.073Z,1.70
2019-03-13T19:13:35.222Z,2.55
2019-03-13T19:16:23.602Z,2.12
2019-03-13T19:19:11.827Z,3.60
2019-03-13T19:22:01.018Z,2.77
2019-03-13T19:24:49.147Z,2.77
2019-03-13T19:27:38.447Z,3.55
2019-03-13T19:30:30.316Z,2.33
2019-03-13T19:33:19.225Z,2.50
2019-03-13T19:36:08.131Z,2.60
2019-03-13T19:38:56.389Z,1.30
2019-03-13T19:41:45.647Z,1.65
2019-03-13T19:44:35.121Z,3.35
2019-03-13T19:47:24.366Z,1.32
2019-03-13T19:50:13.790Z,2.08
2019-03-13T19:53:02.663Z,2.58
2019-03-13T19:55:50.895Z,4.50
2019-03-13T19:58:40.283Z,2.05
2019-03-13T20:01:29.743Z,1.55
2019-03-13T20:04:17.961Z,1.70
2019-03-13T20:07:06.849Z,2.12
2019-03-13T20:09:56.668Z,1.77
2019-03-13T20:12:45.202Z,1.55
2019-03-13T20:15:33.821Z,2.47
2019-03-13T20:18:22.807Z,1.67
2019-03-13T20:21:11.106Z,1.77
2019-03-13T20:24:00.316Z,2.20
2019-03-13T20:26:48.901Z,1.80
2019-03-13T20:29:37.994Z,2.05
2019-03-13T20:32:26.263Z,2.10
2019-03-13T20:35:14.915Z,1.60
2019-03-13T20:38:05.355Z,2.10
2019-03-13T20:40:54.597Z,1.57
2019-03-13T20:43:46.115Z,1.10
2019-03-13T20:46:35.164Z,1.80
2019-03-13T20:49:24.207Z,1.12
2019-03-13T20:52:13.318Z,1.05
2019-03-13T20:55:02.335Z,0.95
2019-03-13T20:57:51.315Z,1.27
2019-03-13T21:00:40.851Z,1.00
2019-03-13T21:03:29.694Z,1.30
2019-03-13T21:06:19.083Z,1.33
2019-03-13T21:09:08.513Z,1.00
2019-03-13T21:11:56.987Z,1.25
2019-03-13T21:14:45.734Z,0.70
2019-03-13T21:17:34.381Z,1.50
2019-03-13T21:20:23.559Z,0.73
2019-03-13T21:23:11.982Z,0.80
2019-03-13T21:26:01.051Z,0.90
2019-03-13T21:28:49.317Z,1.10
2019-03-13T21:31:38.028Z,0.80
2019-03-13T21:34:28.482Z,1.20
2019-03-13T21:37:16.673Z,1.05
2019-03-13T21:40:06.265Z,1.00
2019-03-13T21:42:55.491Z,1.00
2019-03-13T21:45:46.810Z,1.60
2019-03-13T21:48:35.605Z,1.32
2019-03-13T21:51:24.439Z,1.07
2019-03-13T21:54:13.829Z,1.40
2019-03-13T21:57:02.655Z,1.32
2019-03-13T21:59:51.543Z,0.95
2019-03-13T22:02:39.960Z,1.42
2019-03-13T22:05:28.242Z,0.80
2019-03-13T22:08:16.830Z,1.50
2019-03-13T22:11:05.525Z,1.00
2019-03-13T22:13:54.687Z,0.93
2019-03-13T22:16:42.982Z,1.10
2019-03-13T22:19:31.499Z,1.00
2019-03-13T22:22:19.789Z,0.80
2019-03-13T22:25:09.861Z,1.00
2019-03-13T22:27:58.706Z,1.25
2019-03-13T22:30:47.772Z,2.05
2019-03-13T22:33:36.561Z,1.30
2019-03-13T22:36:25.837Z,0.80
2019-03-13T22:39:14.214Z,0.98
2019-03-13T22:42:04.859Z,2.10
2019-03-13T22:44:53.542Z,1.50
2019-03-13T22:47:43.270Z,2.10
2019-03-13T22:50:32.485Z,1.05
2019-03-13T22:53:21.495Z,0.78
2019-03-13T22:56:10.361Z,1.10
2019-03-13T22:58:59.092Z,1.40
2019-03-13T23:01:47.604Z,1.20
2019-03-13T23:04:36.404Z,1.30
2019-03-13T23:07:25.498Z,1.02
2019-03-13T23:10:31.120Z,1.32
2019-03-13T23:13:19.909Z,1.40
2019-03-13T23:16:08.773Z,1.70
2019-03-13T23:18:57.379Z,1.30
2019-03-13T23:21:46.089Z,1.20
2019-03-13T23:24:37.944Z,1.63
2019-03-13T23:27:25.640Z,1.55
2019-03-13T23:30:14.083Z,1.50
2019-03-13T23:33:02.869Z,1.45
2019-03-13T23:35:51.666Z,1.40
2019-03-13T23:38:39.989Z,1.32
2019-03-13T23:41:28.756Z,1.40
2019-03-13T23:44:17.319Z,1.35
2019-03-13T23:47:05.971Z,1.50
2019-03-13T23:49:54.560Z,2.27
2019-03-13T23:52:43.817Z,1.30
2019-03-13T23:55:32.213Z,1.12
2019-03-13T23:58:21.011Z,1.30
